createdAt,value
2023-11-14T00:00:06.509Z,98605.28
2023-11-14T00:02:34.711Z,98602.56
2023-11-14T00:05:02.164Z,98595.03
2023-11-14T00:07:30.005Z,98590.28
2023-11-14T00:09:57.344Z,98589.09
2023-11-14T00:12:25.908Z,98584.16
2023-11-14T00:14:53.360Z,98589.78
2023-11-14T00:17:21.652Z,98587.88
2023-11-14T00:19:49.145Z,98597.09
2023-11-14T00:22:16.887Z,98593.34
2023-11-14T00:24:44.312Z,98589.41
2023-11-14T00:27:13.286Z,98584.19
2023-11-14T00:29:40.734Z,98566.88
2023-11-14T00:32:08.742Z,98569.03
2023-11-14T00:34:36.809Z,98573.88
2023-11-14T00:37:06.105Z,98569.88
2023-11-14T00:39:33.471Z,98569.50
2023-11-14T00:42:01.210Z,98572.00
2023-11-14T00:44:28.610Z,98566.16
2023-11-14T00:46:56.513Z,98569.91
2023-11-14T00:49:24.057Z,98560.25
2023-11-14T00:51:51.687Z,98554.28
2023-11-14T00:54:19.341Z,98565.19
2023-11-14T00:56:47.004Z,98580.00
2023-11-14T00:59:16.310Z,98569.13
2023-11-14T01:01:44.068Z,98578.69
2023-11-14T01:04:13.744Z,98543.28
2023-11-14T01:06:41.668Z,98543.81
2023-11-14T01:09:10.835Z,98541.28
2023-11-14T01:11:39.025Z,98549.00
2023-11-14T01:14:06.629Z,98547.31
2023-11-14T01:16:34.385Z,98533.00
2023-11-14T01:19:02.573Z,98530.34
2023-11-14T01:21:30.546Z,98523.50
2023-11-14T01:23:58.012Z,98517.94
2023-11-14T01:26:25.917Z,98517.44
2023-11-14T01:28:53.401Z,98514.63
2023-11-14T01:31:23.016Z,98515.38
2023-11-14T01:33:51.679Z,98515.72
2023-11-14T01:36:19.428Z,98528.84
2023-11-14T01:38:47.006Z,98521.28
2023-11-14T01:41:14.754Z,98522.03
2023-11-14T01:43:48.810Z,98510.31
2023-11-14T01:46:19.618Z,98500.00
2023-11-14T01:48:50.159Z,98505.56
2023-11-14T01:51:19.697Z,98479.28
2023-11-14T01:53:51.597Z,98494.81
2023-11-14T01:56:20.829Z,98483.16
2023-11-14T01:58:51.069Z,98476.53
2023-11-14T02:01:20.293Z,98472.03
2023-11-14T02:03:47.785Z,98473.88
2023-11-14T02:06:15.870Z,98465.25
2023-11-14T02:08:43.302Z,98467.25
2023-11-14T02:11:11.171Z,98440.13
2023-11-14T02:13:39.865Z,98449.50
2023-11-14T02:16:07.854Z,98457.38
2023-11-14T02:18:35.178Z,98455.03
2023-11-14T02:21:02.927Z,98432.75
2023-11-14T02:23:36.869Z,98457.69
2023-11-14T02:26:05.896Z,98443.31
2023-11-14T02:28:33.364Z,98439.72
2023-11-14T02:31:03.055Z,98440.72
2023-11-14T02:33:30.446Z,98439.88
2023-11-14T02:35:58.039Z,98424.94
2023-11-14T02:38:26.124Z,98433.38
2023-11-14T02:40:53.868Z,98414.63
2023-11-14T02:43:21.968Z,98440.19
2023-11-14T02:45:49.734Z,98419.78
2023-11-14T02:48:17.143Z,98410.69
2023-11-14T02:50:57.089Z,98417.09
2023-11-14T02:53:24.977Z,98411.53
2023-11-14T02:55:53.457Z,98413.28
2023-11-14T02:58:20.973Z,98401.41
2023-11-14T03:00:50.549Z,98407.09
2023-11-14T03:03:18.820Z,98400.09
2023-11-14T03:05:46.975Z,98393.88
2023-11-14T03:08:14.472Z,98383.00
2023-11-14T03:10:42.907Z,98379.34
2023-11-14T03:13:10.593Z,98381.94
2023-11-14T03:15:38.710Z,98373.22
2023-11-14T03:18:07.488Z,98380.44
2023-11-14T03:20:35.852Z,98375.19
2023-11-14T03:23:05.004Z,98362.81
2023-11-14T03:25:33.383Z,98372.69
2023-11-14T03:28:02.730Z,98380.19
2023-11-14T03:30:30.916Z,98380.03
2023-11-14T03:32:58.617Z,98367.16
2023-11-14T03:35:28.051Z,98384.25
2023-11-14T03:37:55.521Z,98378.44
2023-11-14T03:40:23.523Z,98370.97
2023-11-14T03:42:51.687Z,98371.16
2023-11-14T03:45:19.462Z,98365.72
2023-11-14T03:47:46.822Z,98372.59
2023-11-14T03:50:14.572Z,98365.06
2023-11-14T03:52:42.360Z,98369.47
2023-11-14T03:55:10.381Z,98353.03
2023-11-14T03:57:37.718Z,98365.28
2023-11-14T04:00:12.587Z,98356.91
2023-11-14T04:02:43.333Z,98362.72
2023-11-14T04:05:11.219Z,98352.97
2023-11-14T04:07:38.831Z,98360.75
2023-11-14T04:10:08.717Z,98359.59
2023-11-14T04:12:36.415Z,98360.59
2023-11-14T04:15:04.868Z,98351.09
2023-11-14T04:17:33.377Z,98350.06
2023-11-14T04:20:01.270Z,98359.81
2023-11-14T04:22:28.856Z,98356.47
2023-11-14T04:24:57.199Z,98348.28
2023-11-14T04:27:24.648Z,98355.91
2023-11-14T04:29:52.361Z,98357.31
2023-11-14T04:32:20.749Z,98350.59
2023-11-14T04:34:48.936Z,98350.06
2023-11-14T04:37:16.350Z,98347.25
2023-11-14T04:39:46.119Z,98344.59
2023-11-14T04:42:13.544Z,98363.75
2023-11-14T04:44:41.250Z,98354.44
2023-11-14T04:47:09.224Z,98365.59
2023-11-14T04:49:38.006Z,98363.34
2023-11-14T04:52:05.947Z,98359.38
2023-11-14T04:54:33.676Z,98352.69
2023-11-14T04:57:01.139Z,98355.31
2023-11-14T04:59:28.909Z,98351.00
2023-11-14T05:01:56.410Z,98355.56
2023-11-14T05:04:24.130Z,98343.13
2023-11-14T05:06:51.515Z,98338.75
2023-11-14T05:09:19.316Z,98346.66
2023-11-14T05:11:46.763Z,98364.38
2023-11-14T05:14:14.485Z,98354.59
2023-11-14T05:16:42.962Z,98350.47
2023-11-14T05:19:11.219Z,98336.91
2023-11-14T05:21:39.357Z,98345.78
2023-11-14T05:24:10.479Z,98349.06
2023-11-14T05:26:37.850Z,98339.00
2023-11-14T05:29:08.222Z,98346.50
2023-11-14T05:31:36.444Z,98361.16
2023-11-14T05:34:04.698Z,98339.63
2023-11-14T05:36:32.311Z,98343.28
2023-11-14T05:39:00.097Z,98337.41
2023-11-14T05:41:27.477Z,98347.53
2023-11-14T05:43:55.170Z,98328.16
2023-11-14T05:46:22.529Z,98335.59
2023-11-14T05:48:50.318Z,98342.25
2023-11-14T05:51:18.021Z,98332.31
2023-11-14T05:53:46.481Z,98334.34
2023-11-14T05:56:14.098Z,98336.25
2023-11-14T05:58:42.050Z,98332.19
2023-11-14T06:01:11.377Z,98339.66
2023-11-14T06:03:39.370Z,98346.84
2023-11-14T06:06:07.148Z,98336.63
2023-11-14T06:08:35.303Z,98346.59
2023-11-14T06:11:03.148Z,98348.69
2023-11-14T06:13:30.965Z,98351.50
2023-11-14T06:15:58.393Z,98350.66
2023-11-14T06:18:30.973Z,98358.06
2023-11-14T06:21:00.559Z,98357.81
2023-11-14T06:23:29.016Z,98356.22
2023-11-14T06:25:57.705Z,98352.19
2023-11-14T06:28:25.753Z,98357.50
2023-11-14T06:30:53.281Z,98351.78
2023-11-14T06:33:20.982Z,98338.88
2023-11-14T06:35:49.014Z,98337.53
2023-11-14T06:38:16.817Z,98328.03
2023-11-14T06:40:46.821Z,98340.19
2023-11-14T06:43:15.031Z,98340.13
2023-11-14T06:45:43.555Z,98334.09
2023-11-14T06:48:11.329Z,98328.31
2023-11-14T06:50:44.584Z,98328.25
2023-11-14T06:53:13.449Z,98341.00
2023-11-14T06:55:41.524Z,98327.78
2023-11-14T06:58:09.379Z,98313.25
2023-11-14T07:00:36.917Z,98334.19
2023-11-14T07:03:05.102Z,98328.78
2023-11-14T07:05:32.678Z,98323.06
2023-11-14T07:08:01.773Z,98327.47
2023-11-14T07:10:31.882Z,98329.34
2023-11-14T07:12:59.720Z,98331.31
2023-11-14T07:15:28.953Z,98332.25
2023-11-14T07:17:56.942Z,98334.16
2023-11-14T07:20:25.614Z,98334.94
2023-11-14T07:22:53.703Z,98322.75
2023-11-14T07:25:21.285Z,98322.94
2023-11-14T07:27:50.942Z,98312.00
2023-11-14T07:30:18.807Z,98321.06
2023-11-14T07:32:46.933Z,98316.13
2023-11-14T07:35:14.565Z,98311.66
2023-11-14T07:37:42.368Z,98303.88
2023-11-14T07:40:10.468Z,98313.94
2023-11-14T07:42:38.342Z,98300.97
2023-11-14T07:45:11.154Z,98304.09
2023-11-14T07:47:41.191Z,98298.25
2023-11-14T07:50:08.875Z,98297.88
2023-11-14T07:52:36.615Z,98302.41
2023-11-14T07:55:04.810Z,98297.66
2023-11-14T07:57:33.512Z,98307.78
2023-11-14T08:00:00.943Z,98290.75
2023-11-14T08:02:29.001Z,98283.50
2023-11-14T08:04:56.548Z,98294.38
2023-11-14T08:07:24.451Z,98300.47
2023-11-14T08:09:51.851Z,98305.97
2023-11-14T08:12:19.738Z,98293.22
2023-11-14T08:14:47.285Z,98302.16
2023-11-14T08:17:16.032Z,98288.66
2023-11-14T08:19:44.068Z,98292.94
2023-11-14T08:22:13.035Z,98290.94
2023-11-14T08:24:40.544Z,98294.09
2023-11-14T08:27:08.457Z,98290.09
2023-11-14T08:29:39.798Z,98301.53
2023-11-14T08:32:09.847Z,98282.19
2023-11-14T08:34:37.801Z,98295.75
2023-11-14T08:37:05.485Z,98293.16
2023-11-14T08:39:32.939Z,98288.78
2023-11-14T08:42:00.771Z,98293.47
2023-11-14T08:44:28.469Z,98289.91
2023-11-14T08:46:56.265Z,98278.50
2023-11-14T08:49:23.995Z,98292.34
2023-11-14T08:51:52.337Z,98284.94
2023-11-14T08:54:19.661Z,98276.06
2023-11-14T08:56:47.439Z,98283.75
2023-11-14T08:59:16.750Z,98272.59
2023-11-14T09:01:46.258Z,98273.25
2023-11-14T09:04:13.860Z,98278.00
2023-11-14T09:06:42.043Z,98272.06
2023-11-14T09:09:09.959Z,98259.69
2023-11-14T09:11:39.312Z,98269.53
2023-11-14T09:14:07.125Z,98262.47
2023-11-14T09:16:34.769Z,98263.50
2023-11-14T09:19:02.361Z,98255.78
2023-11-14T09:21:30.484Z,98258.06
2023-11-14T09:23:58.917Z,98255.34
2023-11-14T09:26:26.658Z,98232.41
2023-11-14T09:28:54.484Z,98244.84
2023-11-14T09:31:22.464Z,98239.22
2023-11-14T09:33:50.791Z,98241.47
2023-11-14T09:36:18.534Z,98231.34
2023-11-14T09:38:45.989Z,98231.50
2023-11-14T09:41:13.865Z,98222.47
2023-11-14T09:43:42.268Z,98226.28
2023-11-14T09:46:13.558Z,98222.16
2023-11-14T09:48:41.529Z,98229.19
2023-11-14T09:51:10.814Z,98223.34
2023-11-14T09:53:40.254Z,98213.59
2023-11-14T09:56:08.733Z,98222.88
2023-11-14T09:58:36.098Z,98216.19
2023-11-14T10:01:04.034Z,98216.72
2023-11-14T10:03:33.210Z,98208.72
2023-11-14T10:06:00.972Z,98215.25
2023-11-14T10:08:28.632Z,98206.88
2023-11-14T10:11:10.836Z,98212.19
2023-11-14T10:13:39.622Z,98200.09
2023-11-14T10:16:17.940Z,98213.09
2023-11-14T10:18:49.726Z,98207.91
2023-11-14T10:21:26.686Z,98203.38
2023-11-14T10:23:56.474Z,98209.28
2023-11-14T10:26:25.478Z,98192.06
2023-11-14T10:29:01.940Z,98190.19
2023-11-14T10:31:41.360Z,98183.19
2023-11-14T10:34:27.272Z,98183.84
2023-11-14T10:36:56.708Z,98186.41
2023-11-14T10:39:25.585Z,98176.50
2023-11-14T10:41:53.987Z,98179.16
2023-11-14T10:44:22.669Z,98177.31
2023-11-14T10:46:55.407Z,98180.72
2023-11-14T10:49:24.818Z,98179.94
2023-11-14T10:51:54.243Z,98167.91
2023-11-14T10:54:22.098Z,98163.13
2023-11-14T10:56:56.096Z,98162.00
2023-11-14T10:59:27.920Z,98166.16
2023-11-14T11:01:56.203Z,98169.41
2023-11-14T11:04:23.695Z,98161.56
2023-11-14T11:06:51.340Z,98160.44
2023-11-14T11:09:20.527Z,98155.69
2023-11-14T11:11:55.017Z,98164.16
2023-11-14T11:14:24.158Z,98163.47
2023-11-14T11:16:53.589Z,98161.38
2023-11-14T11:19:30.191Z,98155.66
2023-11-14T11:22:14.829Z,98155.31
2023-11-14T11:25:19.487Z,98156.50
2023-11-14T11:27:47.293Z,98155.66
2023-11-14T11:30:15.060Z,98154.00
2023-11-14T11:32:42.990Z,98149.91
2023-11-14T11:35:18.636Z,98153.00
2023-11-14T11:37:57.780Z,98153.56
2023-11-14T11:40:29.643Z,98148.56
2023-11-14T11:43:10.738Z,98155.59
2023-11-14T11:45:40.354Z,98142.19
2023-11-14T11:48:33.674Z,98150.19
2023-11-14T11:51:24.616Z,98159.25
2023-11-14T11:53:53.278Z,98151.75
2023-11-14T11:56:35.849Z,98157.63
2023-11-14T11:59:04.890Z,98152.06
2023-11-14T12:01:32.859Z,98144.66
2023-11-14T12:04:01.304Z,98141.31
2023-11-14T12:06:29.777Z,98146.91
2023-11-14T12:08:57.747Z,98149.41
2023-11-14T12:11:26.342Z,98144.81
2023-11-14T12:13:57.499Z,98136.13
2023-11-14T12:16:25.381Z,98147.88
2023-11-14T12:18:55.397Z,98144.69
2023-11-14T12:21:22.789Z,98140.63
2023-11-14T12:23:51.644Z,98135.56
2023-11-14T12:26:19.035Z,98148.69
2023-11-14T12:28:46.895Z,98147.13
2023-11-14T12:31:14.824Z,98145.72
2023-11-14T12:33:47.006Z,98133.16
2023-11-14T12:36:27.311Z,98133.78
2023-11-14T12:38:56.406Z,98138.13
2023-11-14T12:41:30.443Z,98136.72
2023-11-14T12:44:07.496Z,98132.63
2023-11-14T12:46:38.649Z,98145.03
2023-11-14T12:49:12.272Z,98139.13
2023-11-14T12:51:45.130Z,98132.78
2023-11-14T12:54:14.109Z,98136.75
2023-11-14T12:56:42.356Z,98130.63
2023-11-14T12:59:10.647Z,98132.28
2023-11-14T13:01:39.940Z,98130.19
2023-11-14T13:04:12.735Z,98121.91
2023-11-14T13:06:44.523Z,98118.81
2023-11-14T13:09:14.622Z,98107.59
2023-11-14T13:11:42.306Z,98119.63
2023-11-14T13:14:10.936Z,98118.53
2023-11-14T13:16:38.393Z,98108.03
2023-11-14T13:19:07.055Z,98113.41
2023-11-14T13:21:34.918Z,98110.47
2023-11-14T13:24:03.793Z,98108.41
2023-11-14T13:26:31.627Z,98098.47
2023-11-14T13:28:59.450Z,98108.22
2023-11-14T13:31:26.888Z,98102.78
2023-11-14T13:33:54.580Z,98107.78
2023-11-14T13:36:24.989Z,98101.88
2023-11-14T13:38:52.752Z,98101.56
2023-11-14T13:41:20.189Z,98094.75
2023-11-14T13:43:48.453Z,98104.75
2023-11-14T13:46:23.917Z,98110.91
2023-11-14T13:48:56.831Z,98111.16
2023-11-14T13:51:25.727Z,98110.91
2023-11-14T13:53:54.609Z,98112.00
2023-11-14T13:56:22.999Z,98107.03
2023-11-14T13:58:51.237Z,98098.13
2023-11-14T14:01:18.987Z,98109.56
2023-11-14T14:03:46.765Z,98097.75
2023-11-14T14:06:14.930Z,98106.91
2023-11-14T14:08:43.827Z,98096.13
2023-11-14T14:11:13.272Z,98112.69
2023-11-14T14:13:41.484Z,98109.56
2023-11-14T14:16:09.734Z,98106.69
2023-11-14T14:18:40.194Z,98110.81
2023-11-14T14:21:08.689Z,98104.59
2023-11-14T14:23:36.846Z,98117.25
2023-11-14T14:26:07.086Z,98108.72
2023-11-14T14:28:40.107Z,98111.19
2023-11-14T14:31:10.165Z,98115.34
2023-11-14T14:33:39.528Z,98096.50
2023-11-14T14:36:07.474Z,98109.41
2023-11-14T14:38:35.191Z,98097.47
2023-11-14T14:41:02.751Z,98102.47
2023-11-14T14:43:31.546Z,98113.88
2023-11-14T14:45:59.012Z,98108.06
2023-11-14T14:48:26.818Z,98119.22
2023-11-14T14:50:55.021Z,98116.72
2023-11-14T14:53:25.177Z,98114.03
2023-11-14T14:55:53.228Z,98115.75
2023-11-14T14:58:21.752Z,98101.03
2023-11-14T15:00:50.063Z,98118.00
2023-11-14T15:03:22.368Z,98097.91
2023-11-14T15:05:51.724Z,98111.56
2023-11-14T15:08:20.517Z,98109.94
2023-11-14T15:10:49.844Z,98114.78
2023-11-14T15:13:20.391Z,98110.84
2023-11-14T15:15:52.216Z,98104.84
2023-11-14T15:18:20.443Z,98105.47
2023-11-14T15:20:48.641Z,98108.91
2023-11-14T15:23:18.603Z,98097.59
2023-11-14T15:25:45.996Z,98103.16
2023-11-14T15:28:14.123Z,98099.84
2023-11-14T15:30:42.476Z,98102.22
2023-11-14T15:33:10.311Z,98104.69
2023-11-14T15:35:37.790Z,98106.13
2023-11-14T15:38:06.307Z,98091.28
2023-11-14T15:40:33.980Z,98105.59
2023-11-14T15:43:01.678Z,98106.50
2023-11-14T15:45:31.809Z,98106.50
2023-11-14T15:47:59.593Z,98106.50
2023-11-14T15:50:27.206Z,98102.28
2023-11-14T15:52:55.105Z,98097.94
2023-11-14T15:55:22.525Z,98098.53
2023-11-14T15:57:51.550Z,98091.69
2023-11-14T16:00:19.351Z,98097.53
2023-11-14T16:02:48.526Z,98100.03
2023-11-14T16:05:16.348Z,98101.88
2023-11-14T16:07:44.010Z,98102.34
2023-11-14T16:10:11.443Z,98100.63
2023-11-14T16:12:39.094Z,98098.03
2023-11-14T16:15:07.497Z,98099.88
2023-11-14T16:17:36.720Z,98090.16
2023-11-14T16:20:04.519Z,98095.53
2023-11-14T16:22:34.005Z,98100.31
2023-11-14T16:25:01.788Z,98100.97
2023-11-14T16:27:29.645Z,98100.81
2023-11-14T16:29:57.107Z,98097.72
2023-11-14T16:32:25.095Z,98091.53
2023-11-14T16:34:52.694Z,98102.72
2023-11-14T16:37:21.334Z,98091.88
2023-11-14T16:39:48.740Z,98099.69
2023-11-14T16:42:16.532Z,98094.38
2023-11-14T16:44:44.208Z,98095.75
2023-11-14T16:47:13.719Z,98099.53
2023-11-14T16:49:41.264Z,98093.63
2023-11-14T16:52:10.938Z,98080.19
2023-11-14T16:54:42.371Z,98088.75
2023-11-14T16:57:10.063Z,98098.28
2023-11-14T16:59:37.452Z,98098.97
2023-11-14T17:02:05.348Z,98087.69
2023-11-14T17:04:32.764Z,98091.38
2023-11-14T17:07:00.569Z,98094.78
2023-11-14T17:09:28.608Z,98094.56
2023-11-14T17:11:56.408Z,98090.59
2023-11-14T17:14:24.574Z,98095.34
2023-11-14T17:16:53.051Z,98093.72
2023-11-14T17:19:20.366Z,98082.34
2023-11-14T17:21:48.325Z,98094.38
2023-11-14T17:24:15.737Z,98082.53
2023-11-14T17:26:44.131Z,98093.91
2023-11-14T17:29:11.841Z,98091.31
2023-11-14T17:31:43.826Z,98088.06
2023-11-14T17:34:11.527Z,98089.94
2023-11-14T17:36:39.642Z,98097.38
2023-11-14T17:39:10.687Z,98092.66
2023-11-14T17:41:38.635Z,98092.44
2023-11-14T17:44:06.426Z,98092.66
2023-11-14T17:46:34.904Z,98097.19
2023-11-14T17:49:02.305Z,98093.88
2023-11-14T17:51:37.915Z,98091.38
2023-11-14T17:54:07.112Z,98084.38
2023-11-14T17:56:35.259Z,98083.31
2023-11-14T17:59:03.154Z,98081.47
2023-11-14T18:01:32.260Z,98095.78
2023-11-14T18:04:00.840Z,98082.34
2023-11-14T18:06:29.753Z,98084.16
2023-11-14T18:08:57.278Z,98084.38
2023-11-14T18:11:27.124Z,98074.47
2023-11-14T18:13:55.650Z,98071.13
2023-11-14T18:16:23.781Z,98073.44
2023-11-14T18:18:51.631Z,98086.06
2023-11-14T18:21:19.445Z,98071.16
2023-11-14T18:23:47.116Z,98079.00
2023-11-14T18:26:15.078Z,98069.94
2023-11-14T18:28:43.106Z,98059.97
2023-11-14T18:31:12.122Z,98064.34
2023-11-14T18:33:39.611Z,98067.59
2023-11-14T18:36:08.060Z,98052.09
2023-11-14T18:38:35.663Z,98051.25
2023-11-14T18:41:04.522Z,98057.00
2023-11-14T18:43:33.071Z,98069.81
2023-11-14T18:46:00.877Z,98069.00
2023-11-14T18:48:28.454Z,98059.50
2023-11-14T18:50:57.172Z,98071.28
2023-11-14T18:53:25.550Z,98078.50
2023-11-14T18:55:53.851Z,98057.59
2023-11-14T18:58:22.323Z,98068.78
2023-11-14T19:00:50.097Z,98064.50
2023-11-14T19:03:17.819Z,98056.63
2023-11-14T19:05:46.272Z,98059.84
2023-11-14T19:08:13.776Z,98051.22
2023-11-14T19:10:43.108Z,98052.06
2023-11-14T19:13:10.482Z,98066.16
2023-11-14T19:15:38.234Z,98060.38
2023-11-14T19:18:05.807Z,98056.19
2023-11-14T19:20:35.872Z,98046.06
2023-11-14T19:23:40.260Z,98046.41
2023-11-14T19:25:53.342Z,98055.03
2023-11-14T19:28:21.077Z,98054.13
2023-11-14T19:30:48.768Z,98056.38
2023-11-14T19:33:16.322Z,98066.09
2023-11-14T19:35:44.197Z,98065.88
2023-11-14T19:38:11.648Z,98060.75
2023-11-14T19:40:39.386Z,98061.56
2023-11-14T19:43:07.658Z,98057.84
2023-11-14T19:45:35.362Z,98063.19
2023-11-14T19:48:04.366Z,98061.38
2023-11-14T19:50:32.086Z,98067.59
2023-11-14T19:52:59.950Z,98075.28
2023-11-14T19:55:27.642Z,98073.59
2023-11-14T19:57:55.319Z,98069.44
2023-11-14T20:00:23.466Z,98074.63
2023-11-14T20:02:50.945Z,98074.09
2023-11-14T20:05:18.681Z,98074.78
2023-11-14T20:07:46.165Z,98071.47
2023-11-14T20:10:15.114Z,98077.28
2023-11-14T20:12:44.663Z,98074.59
2023-11-14T20:15:14.920Z,98064.88
2023-11-14T20:17:45.034Z,98076.22
2023-11-14T20:20:12.968Z,98083.72
2023-11-14T20:22:40.854Z,98072.13
2023-11-14T20:25:09.017Z,98079.13
2023-11-14T20:27:36.518Z,98076.91
2023-11-14T20:30:05.796Z,98071.28
2023-11-14T20:32:35.798Z,98069.25
2023-11-14T20:35:04.800Z,98067.19
2023-11-14T20:37:33.049Z,98073.19
2023-11-14T20:40:00.784Z,98071.94
2023-11-14T20:42:28.397Z,98079.22
2023-11-14T20:44:56.405Z,98064.50
2023-11-14T20:47:23.882Z,98055.56
2023-11-14T20:49:51.711Z,98067.75
2023-11-14T20:52:19.106Z,98063.16
2023-11-14T20:54:46.833Z,98069.41
2023-11-14T20:57:14.156Z,98060.50
2023-11-14T20:59:42.113Z,98082.22
2023-11-14T21:02:10.240Z,98083.69
2023-11-14T21:04:38.675Z,98074.78
2023-11-14T21:07:07.316Z,98080.16
2023-11-14T21:09:35.032Z,98083.06
2023-11-14T21:12:02.488Z,98080.56
2023-11-14T21:14:30.279Z,98083.50
2023-11-14T21:16:57.885Z,98084.31
2023-11-14T21:19:28.187Z,98090.94
2023-11-14T21:21:55.672Z,98086.63
2023-11-14T21:24:23.404Z,98088.25
2023-11-14T21:26:50.915Z,98091.72
2023-11-14T21:29:18.833Z,98087.97
2023-11-14T21:31:48.022Z,98090.66
2023-11-14T21:34:15.949Z,98085.03
2023-11-14T21:36:43.359Z,98101.69
2023-11-14T21:39:12.350Z,98098.31
2023-11-14T21:41:40.061Z,98107.44
2023-11-14T21:44:07.948Z,98099.22
2023-11-14T21:46:36.185Z,98095.78
2023-11-14T21:49:05.294Z,98093.28
2023-11-14T21:51:32.982Z,98098.72
2023-11-14T21:54:00.941Z,98098.03
2023-11-14T21:56:28.475Z,98108.97
2023-11-14T21:58:56.251Z,98100.53
2023-11-14T22:01:24.016Z,98104.03
2023-11-14T22:03:51.959Z,98104.28
2023-11-14T22:06:19.557Z,98094.56
2023-11-14T22:08:48.231Z,98104.75
2023-11-14T22:11:15.729Z,98108.47
2023-11-14T22:13:43.432Z,98100.28
2023-11-14T22:16:10.976Z,98102.38
2023-11-14T22:18:40.362Z,98112.13
2023-11-14T22:21:07.929Z,98116.53
2023-11-14T22:23:35.793Z,98107.00
2023-11-14T22:26:05.232Z,98116.09
2023-11-14T22:28:33.418Z,98125.72
2023-11-14T22:31:00.919Z,98124.19
2023-11-14T22:33:28.967Z,98127.38
2023-11-14T22:35:56.436Z,98125.22
2023-11-14T22:38:24.267Z,98130.22
2023-11-14T22:40:51.650Z,98125.34
2023-11-14T22:43:19.446Z,98121.28
2023-11-14T22:45:46.845Z,98143.41
2023-11-14T22:48:14.666Z,98139.69
2023-11-14T22:50:45.699Z,98131.31
2023-11-14T22:53:15.212Z,98145.38
2023-11-14T22:55:42.623Z,98143.72
2023-11-14T22:58:10.630Z,98142.44
2023-11-14T23:00:43.890Z,98148.06
2023-11-14T23:03:13.154Z,98151.00
2023-11-14T23:05:48.248Z,98152.84
2023-11-14T23:08:16.192Z,98154.13
2023-11-14T23:10:46.658Z,98140.84
2023-11-14T23:13:15.463Z,98153.09
2023-11-14T23:15:42.953Z,98146.34
2023-11-14T23:18:10.906Z,98160.91
2023-11-14T23:20:39.133Z,98147.66
2023-11-14T23:23:06.847Z,98147.09
2023-11-14T23:25:35.088Z,98159.00
2023-11-14T23:28:03.087Z,98165.91
2023-11-14T23:30:30.564Z,98170.34
2023-11-14T23:32:58.437Z,98176.97
2023-11-14T23:35:25.961Z,98180.91
2023-11-14T23:37:54.319Z,98186.09
2023-11-14T23:40:24.955Z,98187.28
2023-11-14T23:42:54.595Z,98178.16
2023-11-14T23:45:22.393Z,98186.47
2023-11-14T23:47:50.321Z,98195.75
2023-11-14T23:50:19.376Z,98195.41
2023-11-14T23:52:48.418Z,98206.44
2023-11-14T23:55:16.551Z,98199.38
2023-11-14T23:57:45.143Z,98217.09
